createdAt,value
2022-07-27T00:02:27.515Z,27.42
2022-07-27T00:07:30.051Z,27.42
2022-07-27T00:12:33.931Z,27.40
2022-07-27T00:17:40.859Z,27.42
2022-07-27T00:22:43.742Z,27.40
2022-07-27T00:27:51.806Z,27.39
2022-07-27T00:32:57.337Z,27.37
2022-07-27T00:38:02.338Z,27.33
2022-07-27T00:43:08.412Z,27.32
2022-07-27T00:48:14.369Z,27.32
2022-07-27T00:53:17.010Z,27.28
2022-07-27T00:58:21.707Z,27.29
2022-07-27T01:05:13.012Z,27.34
2022-07-27T01:10:19.689Z,27.34
2022-07-27T01:15:22.154Z,27.34
2022-07-27T01:20:24.350Z,27.35
2022-07-27T01:25:33.061Z,27.30
2022-07-27T01:30:36.864Z,27.27
2022-07-27T01:35:41.322Z,27.26
2022-07-27T01:46:13.538Z,27.28
2022-07-27T01:51:16.743Z,27.28
2022-07-27T01:56:22.297Z,27.31
2022-07-27T02:01:32.406Z,27.32
2022-07-27T02:06:37.968Z,27.26
2022-07-27T02:12:12.006Z,27.22
2022-07-27T02:17:17.855Z,27.21
2022-07-27T02:22:26.363Z,27.21
2022-07-27T02:27:29.941Z,27.24
2022-07-27T02:32:34.318Z,27.29
2022-07-27T02:37:39.916Z,27.29
2022-07-27T02:42:46.274Z,27.24
2022-07-27T02:47:53.954Z,27.19
2022-07-27T02:52:59.052Z,27.16
2022-07-27T02:58:06.460Z,27.12
2022-07-27T03:03:17.601Z,27.06
2022-07-27T03:08:24.869Z,27.03
2022-07-27T03:13:32.209Z,27.01
2022-07-27T03:18:42.589Z,26.97
2022-07-27T03:23:45.990Z,26.99
2022-07-27T03:28:51.200Z,27.01
2022-07-27T03:34:09.005Z,27.01
2022-07-27T03:39:29.239Z,26.97
2022-07-27T03:44:33.789Z,26.94
2022-07-27T03:49:42.516Z,26.90
2022-07-27T03:54:49.781Z,26.87
2022-07-27T04:05:21.396Z,26.88
2022-07-27T04:10:42.489Z,26.86
2022-07-27T04:15:55.062Z,26.86
2022-07-27T04:21:05.477Z,26.87
2022-07-27T04:26:12.416Z,26.88
2022-07-27T04:31:28.426Z,26.92
2022-07-27T04:36:34.220Z,26.95
2022-07-27T04:41:42.028Z,26.97
2022-07-27T04:52:08.032Z,26.99
2022-07-27T04:57:20.532Z,27.00
2022-07-27T05:02:24.187Z,27.03
2022-07-27T05:07:36.600Z,26.96
2022-07-27T05:12:43.868Z,26.90
2022-07-27T05:18:06.423Z,26.86
2022-07-27T05:23:09.267Z,26.82
2022-07-27T05:28:18.540Z,26.76
2022-07-27T05:33:22.335Z,26.70
2022-07-27T05:38:32.055Z,26.51
2022-07-27T05:43:35.913Z,26.47
2022-07-27T05:48:39.503Z,26.49
2022-07-27T05:53:52.476Z,26.39
2022-07-27T05:58:59.923Z,26.27
2022-07-27T06:04:14.671Z,26.30
2022-07-27T06:09:23.826Z,26.21
2022-07-27T06:14:29.650Z,26.14
2022-07-27T06:19:36.510Z,26.14
2022-07-27T06:24:43.662Z,25.99
2022-07-27T06:29:47.894Z,25.79
2022-07-27T06:34:57.351Z,25.66
2022-07-27T06:40:03.883Z,25.74
2022-07-27T06:45:25.073Z,25.95
2022-07-27T06:50:39.751Z,26.18
2022-07-27T06:55:46.714Z,26.36
2022-07-27T07:00:50.495Z,26.58
2022-07-27T07:05:56.134Z,26.81
2022-07-27T07:11:04.922Z,27.13
2022-07-27T07:16:22.718Z,27.47
2022-07-27T07:21:29.357Z,27.49
2022-07-27T07:26:37.912Z,27.82
2022-07-27T07:31:47.268Z,28.25
2022-07-27T07:36:54.326Z,28.46
2022-07-27T07:42:15.370Z,28.52
2022-07-27T07:47:38.511Z,28.56
2022-07-27T07:52:59.936Z,28.70
2022-07-27T07:58:06.706Z,28.99
2022-07-27T08:03:10.815Z,29.08
2022-07-27T08:08:24.826Z,29.35
2022-07-27T08:13:30.357Z,29.55
2022-07-27T08:18:42.580Z,29.79
2022-07-27T08:24:09.114Z,29.98
2022-07-27T08:29:25.487Z,29.97
2022-07-27T08:34:46.989Z,29.95
2022-07-27T08:40:38.084Z,29.67
2022-07-27T08:50:45.372Z,29.33
2022-07-27T08:55:49.718Z,29.45
2022-07-27T09:00:57.865Z,29.43
2022-07-27T09:06:15.475Z,29.38
2022-07-27T09:11:22.400Z,29.34
2022-07-27T09:17:14.747Z,29.29
2022-07-27T09:22:00.994Z,29.02
2022-07-27T09:27:10.779Z,28.83
2022-07-27T09:32:44.844Z,28.53
2022-07-27T09:37:57.978Z,28.26
2022-07-27T10:07:30.017Z,27.38
2022-07-27T10:19:08.092Z,27.06
2022-07-27T10:30:30.618Z,26.74
2022-07-27T10:35:38.626Z,26.57
2022-07-27T10:40:48.329Z,26.39
2022-07-27T10:46:01.753Z,26.26
2022-07-27T10:51:45.456Z,26.28
2022-07-27T10:56:53.928Z,26.35
2022-07-27T11:02:02.282Z,26.35
2022-07-27T11:07:26.825Z,26.44
2022-07-27T11:12:49.079Z,26.58
2022-07-27T11:18:04.233Z,26.58
2022-07-27T11:23:50.361Z,26.69
2022-07-27T11:28:50.210Z,26.67
2022-07-27T11:34:00.087Z,26.65
2022-07-27T11:39:19.677Z,26.53
2022-07-27T11:44:42.278Z,26.33
2022-07-27T11:50:16.642Z,26.30
2022-07-27T11:55:25.249Z,26.42
2022-07-27T12:00:46.645Z,26.55
2022-07-27T12:06:00.111Z,26.65
2022-07-27T12:11:13.162Z,26.71
2022-07-27T12:16:36.703Z,26.61
2022-07-27T12:21:51.221Z,26.58
2022-07-27T12:27:25.886Z,26.63
2022-07-27T12:32:33.097Z,26.69
2022-07-27T12:37:48.024Z,26.70
2022-07-27T12:43:07.509Z,26.66
2022-07-27T12:48:24.311Z,26.58
2022-07-27T12:53:52.411Z,26.59
2022-07-27T12:59:06.837Z,26.48
2022-07-27T13:04:14.833Z,26.47
2022-07-27T13:09:18.250Z,26.64
2022-07-27T13:14:26.875Z,26.82
2022-07-27T13:19:35.501Z,27.02
2022-07-27T13:24:38.670Z,27.13
2022-07-27T13:35:37.486Z,27.53
2022-07-27T13:40:51.979Z,27.66
2022-07-27T13:46:01.255Z,27.74
2022-07-27T13:51:24.083Z,27.64
2022-07-27T13:57:00.422Z,27.43
2022-07-27T14:02:08.993Z,27.21
2022-07-27T14:07:12.661Z,27.21
2022-07-27T14:12:19.101Z,27.17
2022-07-27T14:17:24.793Z,27.11
2022-07-27T14:22:32.289Z,27.05
2022-07-27T14:27:47.124Z,27.07
2022-07-27T14:32:50.594Z,27.07
2022-07-27T14:38:05.875Z,27.17
2022-07-27T14:43:27.327Z,27.29
2022-07-27T14:49:05.569Z,27.35
2022-07-27T15:04:51.742Z,27.70
2022-07-27T15:09:59.672Z,27.81
2022-07-27T15:20:25.134Z,27.96
2022-07-27T15:25:31.738Z,28.08
2022-07-27T15:36:32.537Z,28.05
2022-07-27T15:41:40.165Z,28.06
2022-07-27T15:46:51.009Z,28.13
2022-07-27T15:52:03.326Z,28.19
2022-07-27T15:57:43.130Z,28.25
2022-07-27T16:08:50.144Z,28.30
2022-07-27T16:13:56.122Z,28.36
2022-07-27T16:19:13.916Z,28.46
2022-07-27T16:48:05.120Z,28.68
2022-07-27T16:53:23.239Z,28.68
2022-07-27T17:10:48.203Z,28.60
2022-07-27T17:27:52.821Z,28.55
2022-07-27T17:33:21.281Z,28.51
2022-07-27T17:38:28.554Z,28.51
2022-07-27T17:43:45.471Z,28.52
2022-07-27T17:49:04.453Z,28.51
2022-07-27T17:54:15.805Z,28.41
2022-07-27T18:04:55.943Z,28.27
2022-07-27T18:10:01.832Z,28.30
2022-07-27T18:15:31.292Z,28.22
2022-07-27T18:21:08.374Z,28.13
2022-07-27T18:26:16.155Z,28.09
2022-07-27T18:31:22.072Z,28.07
2022-07-27T18:36:34.294Z,28.05
2022-07-27T18:41:58.789Z,28.04
2022-07-27T18:47:07.771Z,28.05
2022-07-27T18:52:18.059Z,28.00
2022-07-27T18:57:30.061Z,27.91
2022-07-27T19:02:39.085Z,27.87
2022-07-27T19:07:47.130Z,27.87
2022-07-27T19:13:12.800Z,27.86
2022-07-27T19:18:18.936Z,27.82
2022-07-27T19:23:33.227Z,27.78
2022-07-27T19:28:42.710Z,27.76
2022-07-27T19:33:54.575Z,27.73
2022-07-27T19:39:08.902Z,27.65
2022-07-27T19:44:19.062Z,27.63
2022-07-27T19:49:27.873Z,27.60
2022-07-27T19:54:31.501Z,27.57
2022-07-27T19:59:55.368Z,27.55
2022-07-27T20:04:59.911Z,27.53
2022-07-27T20:10:09.064Z,27.53
2022-07-27T20:15:24.364Z,27.50
2022-07-27T20:20:31.906Z,27.50
2022-07-27T20:31:14.789Z,27.50
2022-07-27T20:36:26.844Z,27.48
2022-07-27T20:41:42.702Z,27.46
2022-07-27T20:46:56.228Z,27.46
2022-07-27T20:52:06.267Z,27.45
2022-07-27T20:57:28.148Z,27.46
2022-07-27T21:02:35.319Z,27.47
2022-07-27T21:07:46.671Z,27.48
2022-07-27T21:12:56.208Z,27.48
2022-07-27T21:18:05.555Z,27.49
2022-07-27T21:23:30.842Z,27.50
2022-07-27T21:28:41.324Z,27.52
2022-07-27T21:33:49.578Z,27.50
2022-07-27T21:38:53.915Z,27.50
2022-07-27T21:49:34.027Z,27.49
2022-07-27T22:00:09.023Z,27.49
2022-07-27T22:05:16.445Z,27.48
2022-07-27T22:10:34.449Z,27.48
2022-07-27T22:15:45.462Z,27.49
2022-07-27T22:20:55.466Z,27.50
2022-07-27T22:26:02.984Z,27.52
2022-07-27T22:31:22.529Z,27.52
2022-07-27T22:36:29.691Z,27.53
2022-07-27T22:41:39.224Z,27.54
2022-07-27T22:46:59.450Z,27.52
2022-07-27T22:52:10.681Z,27.51
2022-07-27T22:57:15.176Z,27.51
2022-07-27T23:02:30.308Z,27.50
2022-07-27T23:07:36.916Z,27.50
2022-07-27T23:12:58.709Z,27.52
2022-07-27T23:18:15.551Z,27.51
2022-07-27T23:23:39.860Z,27.48
2022-07-27T23:28:59.460Z,27.44
2022-07-27T23:34:08.689Z,27.43
2022-07-27T23:39:21.334Z,27.40
2022-07-27T23:44:32.966Z,27.40
2022-07-27T23:55:04.696Z,27.36
